OEJN

King Abdulaziz International Airport

Jeddah, Saudi Arabia
TAF OEJN 151100Z 1512/1618 30010KT 9999 FEW040 BECMG 1518/1520 VRB03KT 6000 NSC
Issued Valid From Valid To
Aug-15 @ 11:00 UTC
(2 hours ago)
Aug-15 @ 12:00 UTC
(41 minutes ago)
Aug-16 @ 18:00 UTC
(-1 days ago)
Aug-15 @ 12:00 to Aug-15 @ 18:00
TAF OEJN 151100Z 1512/1618 30010KT 9999 FEW040
Wind Visibility Clouds
300° at 10 knots 10,000+ meters
  • Few at 4,000' AGL
Becoming Aug-15 @ 18:00 to Aug-16 @ 18:00
BECMG 1518/1520 VRB03KT 6000 NSC
Wind Visibility Clouds
Variable at 3 knots 6,003 meters
  • No significant clouds
TAF OEJN 151100Z 1512/1618 30010KT 9999 FEW040 BECMG 1518/1520 VRB03KT 6000 NSC
Issued Aug-15 @ 11:00 UTC
(2 hours ago)
Valid From Aug-15 @ 12:00 UTC
(41 minutes ago)
Valid To Aug-16 @ 18:00 UTC
(-1 days ago)
Aug-15 @ 12:00 - Aug-15 @ 18:00
Wind Visibility
300° at 10 knots 10,000+ meters
Clouds
  • Few at 4,000' AGL
Becoming Aug-15 @ 18:00 - Aug-16 @ 18:00
Wind Visibility
Variable at 3 knots 6,003 meters
Clouds
  • No significant clouds